createdAt,value
2023-02-09T00:00:52.468Z,100662.00
2023-02-09T00:03:24.978Z,100660.00
2023-02-09T00:05:54.980Z,100658.00
2023-02-09T00:08:35.762Z,100661.00
2023-02-09T00:11:48.309Z,100644.00
2023-02-09T00:14:29.284Z,100659.00
2023-02-09T00:17:15.952Z,100645.00
2023-02-09T00:19:55.956Z,100664.00
2023-02-09T00:22:28.607Z,100652.00
2023-02-09T00:25:29.157Z,100640.00
2023-02-09T00:28:06.348Z,100638.00
2023-02-09T00:33:34.822Z,100656.00
2023-02-09T00:36:18.882Z,100646.00
2023-02-09T00:38:51.941Z,100655.00
2023-02-09T00:42:03.013Z,100654.00
2023-02-09T00:44:37.001Z,100654.00
2023-02-09T00:47:37.836Z,100652.00
2023-02-09T00:50:11.489Z,100646.00
2023-02-09T00:52:44.150Z,100674.00
2023-02-09T00:55:17.512Z,100671.00
2023-02-09T00:58:02.266Z,100662.00
2023-02-09T01:00:41.347Z,100654.00
2023-02-09T01:03:28.140Z,100648.00
2023-02-09T01:06:04.580Z,100656.00
2023-02-09T01:08:47.735Z,100660.00
2023-02-09T01:11:28.545Z,100645.00
2023-02-09T01:14:03.116Z,100649.00
2023-02-09T01:16:38.636Z,100651.00
2023-02-09T01:19:14.110Z,100644.00
2023-02-09T01:21:45.321Z,100633.00
2023-02-09T01:24:18.546Z,100648.00
2023-02-09T01:26:50.768Z,100640.00
2023-02-09T01:29:20.503Z,100648.00
2023-02-09T01:32:02.041Z,100634.00
2023-02-09T01:34:35.543Z,100645.00
2023-02-09T01:37:02.485Z,100651.00
2023-02-09T01:39:29.486Z,100651.00
2023-02-09T01:41:56.468Z,100651.00
2023-02-09T01:44:28.273Z,100659.00
2023-02-09T01:47:25.572Z,100641.00
2023-02-09T01:49:57.874Z,100631.00
2023-02-09T01:52:49.383Z,100638.00
2023-02-09T01:55:37.074Z,100625.00
2023-02-09T01:58:33.511Z,100621.00
2023-02-09T02:01:07.055Z,100622.00
2023-02-09T02:03:41.743Z,100617.00
2023-02-09T02:06:46.271Z,100621.00
2023-02-09T02:09:28.221Z,100609.00
2023-02-09T02:12:19.373Z,100609.00
2023-02-09T02:15:03.887Z,100605.00
2023-02-09T02:18:13.136Z,100616.00
2023-02-09T02:21:20.373Z,100604.00
2023-02-09T02:24:45.006Z,100603.00
2023-02-09T02:28:02.694Z,100619.00
2023-02-09T02:31:13.630Z,100615.00
2023-02-09T02:34:36.584Z,100607.00
2023-02-09T02:37:46.402Z,100612.00
2023-02-09T02:40:51.725Z,100629.00
2023-02-09T02:43:54.712Z,100633.00
2023-02-09T02:46:58.888Z,100632.00
2023-02-09T02:49:53.271Z,100638.00
2023-02-09T02:52:29.259Z,100632.00
2023-02-09T02:58:29.818Z,100647.00
2023-02-09T03:01:19.345Z,100643.00
2023-02-09T03:03:57.172Z,100637.00
2023-02-09T03:06:42.901Z,100646.00
2023-02-09T03:09:11.975Z,100648.00
2023-02-09T03:12:03.695Z,100649.00
2023-02-09T03:15:13.262Z,100650.00
2023-02-09T03:18:34.546Z,100646.00
2023-02-09T03:21:52.167Z,100641.00
2023-02-09T03:25:02.908Z,100646.00
2023-02-09T03:27:41.930Z,100635.00
2023-02-09T03:30:29.293Z,100636.00
2023-02-09T03:33:02.509Z,100641.00
2023-02-09T03:35:45.307Z,100640.00
2023-02-09T03:38:18.552Z,100627.00
2023-02-09T03:40:56.206Z,100633.00
2023-02-09T03:43:43.095Z,100633.00
2023-02-09T03:46:14.267Z,100636.00
2023-02-09T03:48:46.405Z,100632.00
2023-02-09T03:51:15.609Z,100637.00
2023-02-09T03:53:45.064Z,100628.00
2023-02-09T03:56:17.682Z,100647.00
2023-02-09T03:58:51.175Z,100654.00
2023-02-09T04:01:35.560Z,100633.00
2023-02-09T04:04:06.769Z,100642.00
2023-02-09T04:06:44.232Z,100652.00
2023-02-09T04:09:16.792Z,100645.00
2023-02-09T04:11:47.477Z,100644.00
2023-02-09T04:14:28.536Z,100655.00
2023-02-09T04:17:00.027Z,100652.00
2023-02-09T04:19:30.137Z,100650.00
2023-02-09T04:22:07.113Z,100646.00
2023-02-09T04:24:40.088Z,100640.00
2023-02-09T04:27:25.476Z,100639.00
2023-02-09T04:30:12.946Z,100651.00
2023-02-09T04:32:49.137Z,100659.00
2023-02-09T04:35:31.802Z,100650.00
2023-02-09T04:38:10.011Z,100659.00
2023-02-09T04:40:37.719Z,100653.00
2023-02-09T04:43:13.100Z,100648.00
2023-02-09T04:45:50.551Z,100641.00
2023-02-09T04:48:33.259Z,100645.00
2023-02-09T04:51:13.225Z,100647.00
2023-02-09T04:53:43.326Z,100638.00
2023-02-09T04:56:25.770Z,100636.00
2023-02-09T04:59:19.913Z,100633.00
2023-02-09T05:02:01.908Z,100643.00
2023-02-09T05:04:34.378Z,100643.00
2023-02-09T05:07:15.657Z,100643.00
2023-02-09T05:09:56.420Z,100639.00
2023-02-09T05:12:35.947Z,100635.00
2023-02-09T05:15:15.063Z,100654.00
2023-02-09T05:18:02.912Z,100655.00
2023-02-09T05:20:48.262Z,100654.00
2023-02-09T05:23:28.622Z,100639.00
2023-02-09T05:26:03.000Z,100641.00
2023-02-09T05:28:40.785Z,100653.00
2023-02-09T05:31:20.319Z,100654.00
2023-02-09T05:33:49.722Z,100655.00
2023-02-09T05:36:40.465Z,100667.00
2023-02-09T05:39:15.938Z,100659.00
2023-02-09T05:42:15.289Z,100664.00
2023-02-09T05:44:59.661Z,100652.00
2023-02-09T05:47:37.822Z,100667.00
2023-02-09T05:50:10.381Z,100660.00
2023-02-09T05:52:39.545Z,100668.00
2023-02-09T05:55:07.044Z,100652.00
2023-02-09T05:57:33.942Z,100667.00
2023-02-09T06:00:03.440Z,100667.00
2023-02-09T06:02:35.272Z,100670.00
2023-02-09T06:05:04.008Z,100677.00
2023-02-09T06:07:34.082Z,100676.00
2023-02-09T06:10:01.045Z,100683.00
2023-02-09T06:12:27.942Z,100694.00
2023-02-09T06:14:54.760Z,100689.00
2023-02-09T06:17:21.577Z,100697.00
2023-02-09T06:19:48.477Z,100696.00
2023-02-09T06:22:15.361Z,100703.00
2023-02-09T06:24:42.197Z,100696.00
2023-02-09T06:27:09.196Z,100703.00
2023-02-09T06:29:36.050Z,100711.00
2023-02-09T06:32:03.137Z,100705.00
2023-02-09T06:34:31.970Z,100720.00
2023-02-09T06:37:01.735Z,100709.00
2023-02-09T06:39:32.399Z,100716.00
2023-02-09T06:42:07.439Z,100729.00
2023-02-09T06:44:39.105Z,100716.00
2023-02-09T06:47:08.670Z,100729.00
2023-02-09T06:49:43.200Z,100741.00
2023-02-09T06:52:10.214Z,100735.00
2023-02-09T06:54:37.008Z,100725.00
2023-02-09T06:57:03.967Z,100744.00
2023-02-09T06:59:30.830Z,100720.00
2023-02-09T07:01:58.716Z,100730.00
2023-02-09T07:04:26.347Z,100730.00
2023-02-09T07:06:53.385Z,100732.00
2023-02-09T07:09:23.201Z,100731.00
2023-02-09T07:11:50.331Z,100737.00
2023-02-09T07:17:39.741Z,100722.00
2023-02-09T07:20:09.144Z,100727.00
2023-02-09T07:22:36.243Z,100726.00
2023-02-09T07:25:13.332Z,100732.00
2023-02-09T07:27:47.722Z,100729.00
2023-02-09T07:30:52.535Z,100733.00
2023-02-09T07:33:26.342Z,100738.00
2023-02-09T07:36:28.581Z,100728.00
2023-02-09T07:39:01.049Z,100736.00
2023-02-09T07:41:36.883Z,100740.00
2023-02-09T07:44:17.124Z,100736.00
2023-02-09T07:46:54.330Z,100752.00
2023-02-09T07:49:31.774Z,100740.00
2023-02-09T07:52:01.751Z,100732.00
2023-02-09T07:54:39.814Z,100740.00
2023-02-09T07:57:20.470Z,100740.00
2023-02-09T07:59:59.850Z,100738.00
2023-02-09T08:06:39.832Z,100754.00
2023-02-09T08:09:45.127Z,100735.00
2023-02-09T08:12:47.871Z,100733.00
2023-02-09T08:15:28.430Z,100743.00
2023-02-09T08:18:24.952Z,100751.00
2023-02-09T08:21:14.146Z,100737.00
2023-02-09T08:27:48.181Z,100738.00
2023-02-09T08:30:40.736Z,100749.00
2023-02-09T08:33:20.940Z,100757.00
2023-02-09T08:39:07.687Z,100731.00
2023-02-09T08:41:35.474Z,100735.00
2023-02-09T08:44:22.323Z,100742.00
2023-02-09T08:47:06.547Z,100747.00
2023-02-09T08:49:52.320Z,100749.00
2023-02-09T08:52:25.094Z,100737.00
2023-02-09T08:55:13.974Z,100743.00
2023-02-09T09:00:48.764Z,100727.00
2023-02-09T09:03:25.192Z,100719.00
2023-02-09T09:05:55.866Z,100721.00
2023-02-09T09:08:46.233Z,100722.00
2023-02-09T09:11:29.310Z,100727.00
2023-02-09T09:14:07.901Z,100741.00
2023-02-09T09:16:41.275Z,100743.00
2023-02-09T09:19:13.838Z,100749.00
2023-02-09T09:22:03.193Z,100758.00
2023-02-09T09:24:44.825Z,100753.00
2023-02-09T09:27:22.585Z,100751.00
2023-02-09T09:29:51.439Z,100738.00
2023-02-09T09:32:30.058Z,100745.00
2023-02-09T09:35:01.704Z,100747.00
2023-02-09T09:37:36.049Z,100744.00
2023-02-09T09:40:37.236Z,100758.00
2023-02-09T09:43:59.576Z,100754.00
2023-02-09T09:47:15.952Z,100754.00
2023-02-09T09:49:59.449Z,100765.00
2023-02-09T09:53:10.180Z,100760.00
2023-02-09T09:59:56.389Z,100757.00
2023-02-09T10:03:12.470Z,100762.00
2023-02-09T10:20:12.067Z,100753.00
2023-02-09T10:23:20.206Z,100743.00
2023-02-09T10:26:29.909Z,100753.00
2023-02-09T10:29:46.421Z,100738.00
2023-02-09T10:32:39.975Z,100742.00
2023-02-09T10:43:12.796Z,100740.00
2023-02-09T10:46:29.042Z,100746.00
2023-02-09T10:49:40.072Z,100724.00
2023-02-09T10:53:19.037Z,100737.00
2023-02-09T10:56:19.282Z,100722.00
2023-02-09T11:02:03.642Z,100719.00
2023-02-09T11:04:39.540Z,100723.00
2023-02-09T11:07:14.914Z,100720.00
2023-02-09T11:09:52.678Z,100718.00
2023-02-09T11:12:22.673Z,100729.00
2023-02-09T11:14:50.337Z,100717.00
2023-02-09T11:17:40.210Z,100717.00
2023-02-09T11:20:29.309Z,100715.00
2023-02-09T11:23:43.346Z,100705.00
2023-02-09T11:26:36.888Z,100703.00
2023-02-09T11:29:16.596Z,100706.00
2023-02-09T11:36:52.812Z,100684.00
2023-02-09T11:43:38.979Z,100674.00
2023-02-09T11:46:31.632Z,100667.00
2023-02-09T11:49:29.359Z,100654.00
2023-02-09T11:51:59.440Z,100652.00
2023-02-09T11:54:32.772Z,100651.00
2023-02-09T11:57:18.788Z,100655.00
2023-02-09T11:59:57.334Z,100647.00
2023-02-09T12:02:55.253Z,100640.00
2023-02-09T12:05:24.023Z,100636.00
2023-02-09T12:08:21.631Z,100630.00
2023-02-09T12:11:11.284Z,100633.00
2023-02-09T12:13:58.344Z,100628.00
2023-02-09T12:16:34.810Z,100635.00
2023-02-09T12:19:04.348Z,100634.00
2023-02-09T12:21:38.292Z,100628.00
2023-02-09T12:24:38.041Z,100631.00
2023-02-09T12:27:26.307Z,100642.00
2023-02-09T12:29:53.621Z,100635.00
2023-02-09T12:32:43.016Z,100634.00
2023-02-09T12:35:38.708Z,100632.00
2023-02-09T12:38:18.164Z,100624.00
2023-02-09T12:41:07.037Z,100627.00
2023-02-09T12:43:36.930Z,100624.00
2023-02-09T12:46:48.535Z,100599.00
2023-02-09T12:49:35.632Z,100603.00
2023-02-09T12:52:02.738Z,100605.00
2023-02-09T12:54:50.876Z,100612.00
2023-02-09T12:57:20.504Z,100600.00
2023-02-09T12:59:50.934Z,100605.00
2023-02-09T13:02:50.963Z,100602.00
2023-02-09T13:05:26.789Z,100607.00
2023-02-09T13:08:23.062Z,100607.00
2023-02-09T13:11:19.057Z,100599.00
2023-02-09T13:14:03.320Z,100593.00
2023-02-09T13:16:30.328Z,100601.00
2023-02-09T13:19:20.898Z,100594.00
2023-02-09T13:22:33.018Z,100598.00
2023-02-09T13:25:18.416Z,100602.00
2023-02-09T13:27:49.560Z,100602.00
2023-02-09T13:30:32.391Z,100607.00
2023-02-09T13:33:15.706Z,100612.00
2023-02-09T13:36:25.086Z,100607.00
2023-02-09T13:38:54.623Z,100615.00
2023-02-09T13:41:35.856Z,100607.00
2023-02-09T13:44:03.042Z,100604.00
2023-02-09T13:46:35.578Z,100614.00
2023-02-09T13:49:22.464Z,100608.00
2023-02-09T13:52:09.706Z,100613.00
2023-02-09T13:54:38.050Z,100610.00
2023-02-09T13:57:23.830Z,100599.00
2023-02-09T13:59:51.584Z,100598.00
2023-02-09T14:02:29.999Z,100593.00
2023-02-09T14:05:08.101Z,100597.00
2023-02-09T14:07:58.003Z,100601.00
2023-02-09T14:10:28.187Z,100607.00
2023-02-09T14:13:22.968Z,100609.00
2023-02-09T14:21:04.315Z,100624.00
2023-02-09T14:23:35.429Z,100620.00
2023-02-09T14:27:12.584Z,100631.00
2023-02-09T14:29:55.172Z,100618.00
2023-02-09T14:32:32.254Z,100630.00
2023-02-09T14:35:45.838Z,100635.00
2023-02-09T14:38:54.731Z,100631.00
2023-02-09T14:41:32.101Z,100630.00
2023-02-09T14:44:09.131Z,100630.00
2023-02-09T14:46:59.236Z,100638.00
2023-02-09T14:49:27.642Z,100636.00
2023-02-09T14:52:14.950Z,100629.00
2023-02-09T14:54:55.909Z,100627.00
2023-02-09T14:57:32.999Z,100634.00
2023-02-09T15:00:07.463Z,100633.00
2023-02-09T15:05:42.675Z,100629.00
2023-02-09T15:09:37.815Z,100651.00
2023-02-09T15:19:14.914Z,100639.00
2023-02-09T15:22:29.528Z,100642.00
2023-02-09T15:25:15.564Z,100655.00
2023-02-09T15:28:43.386Z,100653.00
2023-02-09T15:40:10.159Z,100671.00
2023-02-09T15:43:16.447Z,100671.00
2023-02-09T15:45:58.748Z,100664.00
2023-02-09T15:48:42.777Z,100665.00
2023-02-09T15:51:55.271Z,100684.00
2023-02-09T15:57:30.097Z,100680.00
2023-02-09T15:59:59.655Z,100694.00
2023-02-09T16:02:26.954Z,100681.00
2023-02-09T16:04:59.066Z,100676.00
2023-02-09T16:08:32.630Z,100672.00
2023-02-09T16:11:11.282Z,100672.00
2023-02-09T16:13:41.369Z,100693.00
2023-02-09T16:16:16.982Z,100681.00
2023-02-09T16:19:37.665Z,100689.00
2023-02-09T16:23:19.720Z,100711.00
2023-02-09T16:26:01.683Z,100722.00
2023-02-09T16:32:02.986Z,100724.00
2023-02-09T16:34:38.329Z,100722.00
2023-02-09T16:37:05.229Z,100742.00
2023-02-09T16:43:02.013Z,100738.00
2023-02-09T16:46:02.490Z,100737.00
2023-02-09T16:57:14.643Z,100762.00
2023-02-09T17:13:11.563Z,100752.00
2023-02-09T17:19:49.744Z,100768.00
2023-02-09T17:29:53.276Z,100764.00
2023-02-09T17:49:00.797Z,100771.00
2023-02-09T18:15:49.292Z,100803.00
2023-02-09T18:27:20.110Z,100824.00
2023-02-09T18:31:19.295Z,100821.00
2023-02-09T18:46:01.426Z,100856.00
2023-02-09T18:56:57.781Z,100868.00
2023-02-09T19:07:15.352Z,100845.00
2023-02-09T19:10:52.623Z,100849.00
2023-02-09T19:27:47.123Z,100884.00
2023-02-09T19:58:55.609Z,100911.00
2023-02-09T20:01:23.025Z,100926.00
2023-02-09T20:03:53.850Z,100921.00
2023-02-09T20:09:34.244Z,100912.00
2023-02-09T20:12:34.366Z,100913.00
2023-02-09T20:15:23.340Z,100917.00
2023-02-09T20:17:56.490Z,100911.00
2023-02-09T20:20:37.134Z,100919.00
2023-02-09T20:23:10.211Z,100929.00
2023-02-09T20:26:06.023Z,100917.00
2023-02-09T20:29:00.295Z,100912.00
2023-02-09T20:31:45.467Z,100913.00
2023-02-09T20:35:07.901Z,100920.00
2023-02-09T20:37:57.005Z,100922.00
2023-02-09T20:40:25.040Z,100936.00
2023-02-09T20:43:16.627Z,100934.00
2023-02-09T20:46:02.160Z,100948.00
2023-02-09T20:49:01.648Z,100939.00
2023-02-09T20:58:29.206Z,100950.00
2023-02-09T21:01:05.661Z,100956.00
2023-02-09T21:04:18.836Z,100966.00
2023-02-09T23:11:12.969Z,101081.00
2023-02-09T23:17:12.116Z,101095.00
2023-02-09T23:23:23.771Z,101107.00
2023-02-09T23:26:27.844Z,101102.00
2023-02-09T23:33:03.126Z,101115.00
2023-02-09T23:35:45.104Z,101101.00
2023-02-09T23:38:20.700Z,101091.00
2023-02-09T23:44:30.710Z,101092.00
2023-02-09T23:47:08.773Z,101105.00
2023-02-09T23:49:56.228Z,101101.00
2023-02-09T23:52:46.501Z,101103.00
2023-02-09T23:58:23.798Z,101105.00
